Eola, IL (60519)

1:02 AM CDT on April 01, 2015 (GMT -0500)
Brookdale Lakes | | Change Station
CLOSE
Current Station
Personal Weather Station
Location: Naperville, IL
Elevation: 749 ft
Nearby Weather Stations

Elev 749 ft 41.78 °N, 88.20 °W | Updated 2 seconds ago

Clear
Clear
43.1 °F
Feels Like 43 °F
N
0.0
Wind Variable Wind from ESE
Gusts 1.0 mph

Today
High -- | Low -- °F
--% Chance of Precip.
Yesterday
High -- | Low -- °F
Precip. -- in
6:36 AM 7:18 PM
Waxing Gibbous, 91% visible
Pressure 29.98 in
Visibility 10.0 miles
Clouds Clear
Windchill 43 °F
Dew Point 37 °F
Humidity 79%
Rainfall 0.00 in
Snow Depth Not available.
UV 0 out of 12
Pollen 7.40 out of 12
Air Quality Not available.
Flu Activity Not available.
METAR KDPA 010552Z 19005KT 10SM CLR 05/01 A2996 RMK AO2 SLP150 T00500006 10133 20028 401440028 51006

More Conditions Fewer Conditions

Pressure 29.98 in
Visibility 10.0 miles
Clouds Clear
Windchill 43 °F
Dew Point 37 °F
Humidity 79%
Rainfall 0.00 in
Snow Depth Not available.
UV 0 out of 12
Pollen 7.40 out of 12
Air Quality Not available.
Flu Activity Not available.
METAR KDPA 010552Z 19005KT 10SM CLR 05/01 A2996 RMK AO2 SLP150 T00500006 10133 20028 401440028 51006

More Conditions Fewer Conditions

10-Day Weather Forecast

Almanac

Astronomy

Apr. 01, 2015 Rise Set
Actual Time
Civil Twilight
Nautical Twilight
Astronomical Twilight
Moon
Length of Visible Light
Length of Day
Tomorrow will be .
, % of the Moon is Illuminated

Today's Extremes

State Highs State Lows

Community

WunderPhotos

Upload Photos

1,809,920 photos uploaded!

WunderBlogs® & News

Nearby

Air Quality

  Air Quality AQ Index Pollutant
Not available.

Snow Depth

Station Depth Elevation

Earthquake Activity

City Distance Mag. Time & Date
Minimum magnitude displayed is 2.5.

Coastal Water Temperatures

Place Temperature

Stations

Nearby Weather Stations

Station Location Temp. Windchill Dew Point Humidity Wind Precip. Elev Updated Type